sensor_id;sensor_type;location;lat;lon;timestamp;pressure;altitude;pressure_sealevel;temperature;humidity
77281;BME280;66339;47.262;17.144;2023-02-28T00:02:27;101212.22;;;20.47;40.49
77281;BME280;66339;47.262;17.144;2023-02-28T00:04:55;101219.75;;;20.45;40.45
77281;BME280;66339;47.262;17.144;2023-02-28T00:07:26;101232.09;;;20.46;40.48
77281;BME280;66339;47.262;17.144;2023-02-28T00:09:59;101232.38;;;20.45;40.45
77281;BME280;66339;47.262;17.144;2023-02-28T00:12:34;101231.56;;;20.44;40.46
77281;BME280;66339;47.262;17.144;2023-02-28T00:15:09;101233.69;;;20.42;40.48
77281;BME280;66339;47.262;17.144;2023-02-28T00:17:40;101232.88;;;20.42;40.56
77281;BME280;66339;47.262;17.144;2023-02-28T00:20:18;101238.25;;;20.42;40.47
77281;BME280;66339;47.262;17.144;2023-02-28T00:22:57;101234.75;;;20.41;40.47
77281;BME280;66339;47.262;17.144;2023-02-28T00:25:31;101238.53;;;20.40;40.48
77281;BME280;66339;47.262;17.144;2023-02-28T00:27:59;101236.87;;;20.39;40.44
77281;BME280;66339;47.262;17.144;2023-02-28T00:30:32;101245.22;;;20.38;40.45
77281;BME280;66339;47.262;17.144;2023-02-28T00:32:59;101249.78;;;20.37;40.49
77281;BME280;66339;47.262;17.144;2023-02-28T00:35:32;101244.41;;;20.37;40.49
77281;BME280;66339;47.262;17.144;2023-02-28T00:38:06;101249.22;;;20.35;40.49
77281;BME280;66339;47.262;17.144;2023-02-28T00:40:34;101243.84;;;20.35;40.49
77281;BME280;66339;47.262;17.144;2023-02-28T00:43:04;101252.97;;;20.34;40.44
77281;BME280;66339;47.262;17.144;2023-02-28T00:45:41;101247.88;;;20.32;40.50
77281;BME280;66339;47.262;17.144;2023-02-28T00:48:09;101248.13;;;20.31;40.56
77281;BME280;66339;47.262;17.144;2023-02-28T00:50:36;101246.25;;;20.31;40.52
77281;BME280;66339;47.262;17.144;2023-02-28T00:53:07;101248.13;;;20.31;40.53
77281;BME280;66339;47.262;17.144;2023-02-28T00:55:38;101238.44;;;20.30;40.55
77281;BME280;66339;47.262;17.144;2023-02-28T00:58:08;101249.47;;;20.28;40.56
77281;BME280;66339;47.262;17.144;2023-02-28T01:00:39;101249.72;;;20.27;40.55
77281;BME280;66339;47.262;17.144;2023-02-28T01:03:09;101261.53;;;20.26;40.61
77281;BME280;66339;47.262;17.144;2023-02-28T01:05:37;101254.53;;;20.25;40.61
77281;BME280;66339;47.262;17.144;2023-02-28T01:08:07;101255.59;;;20.24;40.63
77281;BME280;66339;47.262;17.144;2023-02-28T01:10:35;101255.59;;;20.24;40.60
77281;BME280;66339;47.262;17.144;2023-02-28T01:13:03;101253.97;;;20.23;40.68
77281;BME280;66339;47.262;17.144;2023-02-28T01:15:37;101256.12;;;20.21;40.69
77281;BME280;66339;47.262;17.144;2023-02-28T01:18:05;101250.75;;;20.21;40.73
77281;BME280;66339;47.262;17.144;2023-02-28T01:20:37;101261.50;;;20.21;40.72
77281;BME280;66339;47.262;17.144;2023-02-28T01:23:08;101256.38;;;20.19;40.74
77281;BME280;66339;47.262;17.144;2023-02-28T01:25:39;101261.19;;;20.17;40.73
77281;BME280;66339;47.262;17.144;2023-02-28T01:28:16;101256.63;;;20.18;40.72
77281;BME280;66339;47.262;17.144;2023-02-28T01:30:50;101260.91;;;20.14;40.77
77281;BME280;66339;47.262;17.144;2023-02-28T01:33:21;101258.22;;;20.14;40.76
77281;BME280;66339;47.262;17.144;2023-02-28T01:36:00;101262.50;;;20.15;40.74
77281;BME280;66339;47.262;17.144;2023-02-28T01:38:28;101266.28;;;20.14;40.77
77281;BME280;66339;47.262;17.144;2023-02-28T01:41:00;101263.03;;;20.11;40.78
77281;BME280;66339;47.262;17.144;2023-02-28T01:46:25;101258.19;;;20.08;40.87
77281;BME280;66339;47.262;17.144;2023-02-28T01:48:57;101259.81;;;20.09;40.84
77281;BME280;66339;47.262;17.144;2023-02-28T01:51:47;101262.72;;;20.08;40.84
77281;BME280;66339;47.262;17.144;2023-02-28T01:54:22;101261.91;;;20.07;40.84
77281;BME280;66339;47.262;17.144;2023-02-28T01:57:09;101261.91;;;20.07;40.88
77281;BME280;66339;47.262;17.144;2023-02-28T01:59:50;101257.88;;;20.05;40.89
77281;BME280;66339;47.262;17.144;2023-02-28T02:02:25;101251.72;;;20.04;40.91
77281;BME280;66339;47.262;17.144;2023-02-28T02:05:10;101257.09;;;20.04;40.93
77281;BME280;66339;47.262;17.144;2023-02-28T02:07:43;101260.81;;;20.03;40.89
77281;BME280;66339;47.262;17.144;2023-02-28T02:10:20;101253.84;;;20.02;40.91
77281;BME280;66339;47.262;17.144;2023-02-28T02:13:25;101259.47;;;20.01;40.90
77281;BME280;66339;47.262;17.144;2023-02-28T02:35:26;101260.19;;;19.91;40.93
77281;BME280;66339;47.262;17.144;2023-02-28T02:38:18;101253.72;;;19.92;40.95
77281;BME280;66339;47.262;17.144;2023-02-28T02:44:44;101265.81;;;19.90;40.98
77281;BME280;66339;47.262;17.144;2023-02-28T02:46:52;101268.72;;;19.88;40.92
77281;BME280;66339;47.262;17.144;2023-02-28T02:49:24;101270.63;;;19.87;40.93
77281;BME280;66339;47.262;17.144;2023-02-28T02:51:53;101269.81;;;19.87;40.93
77281;BME280;66339;47.262;17.144;2023-02-28T02:54:25;101267.13;;;19.87;40.89
77281;BME280;66339;47.262;17.144;2023-02-28T02:57:06;101272.50;;;19.87;40.86
77281;BME280;66339;47.262;17.144;2023-02-28T02:59:36;101269.28;;;19.85;40.88
77281;BME280;66339;47.262;17.144;2023-02-28T03:02:09;101267.63;;;19.84;40.85
77281;BME280;66339;47.262;17.144;2023-02-28T03:05:07;101265.22;;;19.82;40.85
77281;BME280;66339;47.262;17.144;2023-02-28T03:07:36;101268.97;;;19.81;40.92
77281;BME280;66339;47.262;17.144;2023-02-28T03:10:38;101267.09;;;19.82;40.87
77281;BME280;66339;47.262;17.144;2023-02-28T03:21:37;101268.66;;;19.78;40.95
77281;BME280;66339;47.262;17.144;2023-02-28T03:24:19;101269.72;;;19.77;40.91
77281;BME280;66339;47.262;17.144;2023-02-28T03:27:05;101272.41;;;19.77;40.94
77281;BME280;66339;47.262;17.144;2023-02-28T03:29:39;101269.97;;;19.75;40.90
77281;BME280;66339;47.262;17.144;2023-02-28T03:32:19;101274.53;;;19.75;40.90
77281;BME280;66339;47.262;17.144;2023-02-28T03:35:08;101269.66;;;19.72;41.02
77281;BME280;66339;47.262;17.144;2023-02-28T03:37:41;101270.47;;;19.72;41.01
77281;BME280;66339;47.262;17.144;2023-02-28T03:40:27;101277.72;;;19.72;40.96
77281;BME280;66339;47.262;17.144;2023-02-28T03:43:01;101277.19;;;19.70;40.99
77281;BME280;66339;47.262;17.144;2023-02-28T03:45:37;101276.09;;;19.71;40.92
77281;BME280;66339;47.262;17.144;2023-02-28T03:48:27;101277.19;;;19.70;41.02
77281;BME280;66339;47.262;17.144;2023-02-28T03:51:02;101273.13;;;19.67;41.03
77281;BME280;66339;47.262;17.144;2023-02-28T03:53:37;101274.72;;;19.68;40.98
77281;BME280;66339;47.262;17.144;2023-02-28T03:59:42;101273.38;;;19.66;41.00
77281;BME280;66339;47.262;17.144;2023-02-28T04:02:12;101277.37;;;19.63;41.14
77281;BME280;66339;47.262;17.144;2023-02-28T04:04:43;101279.25;;;19.62;41.03
77281;BME280;66339;47.262;17.144;2023-02-28T04:07:17;101280.31;;;19.61;41.07
77281;BME280;66339;47.262;17.144;2023-02-28T04:09:45;101280.31;;;19.61;41.08
77281;BME280;66339;47.262;17.144;2023-02-28T04:12:19;101280.53;;;19.60;41.10
77281;BME280;66339;47.262;17.144;2023-02-28T04:14:50;101281.59;;;19.59;41.11
77281;BME280;66339;47.262;17.144;2023-02-28T04:17:18;101287.78;;;19.59;41.02
77281;BME280;66339;47.262;17.144;2023-02-28T04:19:52;101286.16;;;19.58;41.07
77281;BME280;66339;47.262;17.144;2023-02-28T04:22:29;101282.91;;;19.56;41.09
77281;BME280;66339;47.262;17.144;2023-02-28T04:25:00;101282.91;;;19.56;41.02
77281;BME280;66339;47.262;17.144;2023-02-28T04:27:36;101286.66;;;19.55;41.06
77281;BME280;66339;47.262;17.144;2023-02-28T04:30:13;101286.66;;;19.55;41.05
77281;BME280;66339;47.262;17.144;2023-02-28T04:32:44;101285.03;;;19.54;41.18
77281;BME280;66339;47.262;17.144;2023-02-28T04:35:12;101287.97;;;19.53;41.07
77281;BME280;66339;47.262;17.144;2023-02-28T04:37:39;101294.16;;;19.53;41.11
77281;BME280;66339;47.262;17.144;2023-02-28T04:40:08;101286.34;;;19.52;41.03
77281;BME280;66339;47.262;17.144;2023-02-28T04:42:43;101289.84;;;19.52;41.05
77281;BME280;66339;47.262;17.144;2023-02-28T04:45:13;101290.91;;;19.51;41.02
77281;BME280;66339;47.262;17.144;2023-02-28T04:47:46;101294.66;;;19.50;41.12
77281;BME280;66339;47.262;17.144;2023-02-28T04:50:24;101292.22;;;19.49;41.09
77281;BME280;66339;47.262;17.144;2023-02-28T04:53:00;101298.91;;;19.46;41.10
77281;BME280;66339;47.262;17.144;2023-02-28T04:55:31;101295.97;;;19.48;41.09
77281;BME280;66339;47.262;17.144;2023-02-28T04:58:08;101306.69;;;19.48;41.12
77281;BME280;66339;47.262;17.144;2023-02-28T05:00:36;101295.66;;;19.44;41.26
77281;BME280;66339;47.262;17.144;2023-02-28T05:03:05;101295.91;;;19.43;39.03
77281;BME280;66339;47.262;17.144;2023-02-28T05:05:33;101292.91;;;19.39;37.82
77281;BME280;66339;47.262;17.144;2023-02-28T05:08:10;101296.34;;;19.34;37.16
77281;BME280;66339;47.262;17.144;2023-02-28T05:10:38;101298.41;;;19.27;36.90
77281;BME280;66339;47.262;17.144;2023-02-28T05:13:12;101301.28;;;19.21;36.74
77281;BME280;66339;47.262;17.144;2023-02-28T05:15:43;101299.03;;;19.12;36.62
77281;BME280;66339;47.262;17.144;2023-02-28T05:18:14;101299.72;;;19.03;38.43
77281;BME280;66339;47.262;17.144;2023-02-28T05:20:47;101303.78;;;19.05;39.44
77281;BME280;66339;47.262;17.144;2023-02-28T05:23:23;101299.53;;;19.09;39.74
77281;BME280;66339;47.262;17.144;2023-02-28T05:25:54;101300.66;;;19.13;40.04
77281;BME280;66339;47.262;17.144;2023-02-28T05:28:24;101307.13;;;19.18;39.98
77281;BME280;66339;47.262;17.144;2023-02-28T05:30:55;101313.66;;;19.22;40.20
77281;BME280;66339;47.262;17.144;2023-02-28T05:33:26;101315.59;;;19.26;40.58
77281;BME280;66339;47.262;17.144;2023-02-28T05:36:03;101314.25;;;19.29;40.28
77281;BME280;66339;47.262;17.144;2023-02-28T05:38:32;101311.06;;;19.32;40.23
77281;BME280;66339;47.262;17.144;2023-02-28T05:41:06;101313.25;;;19.35;40.39
77281;BME280;66339;47.262;17.144;2023-02-28T05:43:38;101310.88;;;19.38;40.53
77281;BME280;66339;47.262;17.144;2023-02-28T05:46:12;101318.44;;;19.42;40.63
77281;BME280;66339;47.262;17.144;2023-02-28T05:48:51;101315.50;;;19.43;40.83
77281;BME280;66339;47.262;17.144;2023-02-28T05:51:22;101317.69;;;19.46;41.04
77281;BME280;66339;47.262;17.144;2023-02-28T05:53:53;101326.28;;;19.48;41.14
77281;BME280;66339;47.262;17.144;2023-02-28T05:56:24;101319.88;;;19.49;41.24
77281;BME280;66339;47.262;17.144;2023-02-28T05:58:54;101329.53;;;19.50;41.33
77281;BME280;66339;47.262;17.144;2023-02-28T06:01:34;101323.09;;;19.51;41.43
77281;BME280;66339;47.262;17.144;2023-02-28T06:04:10;101326.84;;;19.50;42.00
77281;BME280;66339;47.262;17.144;2023-02-28T06:07:02;101338.13;;;19.52;42.10
77281;BME280;66339;47.262;17.144;2023-02-28T06:09:44;101337.09;;;19.53;42.20
77281;BME280;66339;47.262;17.144;2023-02-28T06:12:31;101340.31;;;19.55;42.37
77281;BME280;66339;47.262;17.144;2023-02-28T06:15:05;101346.81;;;19.59;42.29
77281;BME280;66339;47.262;17.144;2023-02-28T06:17:43;101342.59;;;19.64;42.08
77281;BME280;66339;47.262;17.144;2023-02-28T06:20:15;101343.16;;;19.66;42.00
77281;BME280;66339;47.262;17.144;2023-02-28T06:22:49;101343.16;;;19.66;41.98
77281;BME280;66339;47.262;17.144;2023-02-28T06:25:24;101349.06;;;19.68;42.10
77281;BME280;66339;47.262;17.144;2023-02-28T06:27:55;101346.97;;;19.70;42.08
77281;BME280;66339;47.262;17.144;2023-02-28T06:30:23;101349.66;;;19.70;42.04
77281;BME280;66339;47.262;17.144;2023-02-28T06:32:57;101350.19;;;19.72;42.10
77281;BME280;66339;47.262;17.144;2023-02-28T06:35:34;101351.81;;;19.73;42.21
77281;BME280;66339;47.262;17.144;2023-02-28T06:38:08;101357.16;;;19.73;42.45
77281;BME280;66339;47.262;17.144;2023-02-28T06:40:56;101359.63;;;19.74;42.69
77281;BME280;66339;47.262;17.144;2023-02-28T06:43:39;101361.50;;;19.74;42.54
77281;BME280;66339;47.262;17.144;2023-02-28T06:46:12;101354.25;;;19.74;42.58
77281;BME280;66339;47.262;17.144;2023-02-28T06:48:42;101371.97;;;19.75;42.56
77281;BME280;66339;47.262;17.144;2023-02-28T06:51:14;101371.97;;;19.75;42.54
77281;BME280;66339;47.262;17.144;2023-02-28T06:53:54;101368.47;;;19.75;42.41
77281;BME280;66339;47.262;17.144;2023-02-28T06:56:28;101373.84;;;19.75;42.61
77281;BME280;66339;47.262;17.144;2023-02-28T06:58:55;101371.97;;;19.75;42.50
77281;BME280;66339;47.262;17.144;2023-02-28T07:01:23;101381.41;;;19.78;42.38
77281;BME280;66339;47.262;17.144;2023-02-28T07:03:57;101381.09;;;19.74;41.47
77281;BME280;66339;47.262;17.144;2023-02-28T07:06:31;101386.47;;;19.74;41.01
77281;BME280;66339;47.262;17.144;2023-02-28T07:09:04;101380.28;;;19.74;40.91
77281;BME280;66339;47.262;17.144;2023-02-28T07:11:40;101394.25;;;19.76;41.33
77281;BME280;66339;47.262;17.144;2023-02-28T07:14:16;101388.88;;;19.76;41.60
77281;BME280;66339;47.262;17.144;2023-02-28T07:16:48;101391.34;;;19.77;41.63
77281;BME280;66339;47.262;17.144;2023-02-28T07:19:22;101392.66;;;19.75;41.54
77281;BME280;66339;47.262;17.144;2023-02-28T07:22:01;101392.66;;;19.75;41.34
77281;BME280;66339;47.262;17.144;2023-02-28T07:24:35;101392.66;;;19.75;41.33
77281;BME280;66339;47.262;17.144;2023-02-28T07:27:11;101395.31;;;19.75;41.36
77281;BME280;66339;47.262;17.144;2023-02-28T07:29:50;101395.91;;;19.77;41.29
77281;BME280;66339;47.262;17.144;2023-02-28T07:32:18;101394.56;;;19.79;41.26
77281;BME280;66339;47.262;17.144;2023-02-28T07:34:53;101390.00;;;19.80;41.05
77281;BME280;66339;47.262;17.144;2023-02-28T07:37:27;101398.06;;;19.80;41.03
77281;BME280;66339;47.262;17.144;2023-02-28T07:40:05;101395.38;;;19.80;41.45
77281;BME280;66339;47.262;17.144;2023-02-28T07:42:35;101399.72;;;19.81;41.39
77281;BME280;66339;47.262;17.144;2023-02-28T07:45:13;101399.97;;;19.84;41.37
77281;BME280;66339;47.262;17.144;2023-02-28T07:47:51;101406.75;;;19.87;41.47
77281;BME280;66339;47.262;17.144;2023-02-28T07:50:23;101408.34;;;19.88;41.49
77281;BME280;66339;47.262;17.144;2023-02-28T07:53:00;101405.16;;;19.91;41.44
77281;BME280;66339;47.262;17.144;2023-02-28T07:55:34;101405.75;;;19.93;41.47
77281;BME280;66339;47.262;17.144;2023-02-28T07:58:16;101400.91;;;19.95;41.40
77281;BME280;66339;47.262;17.144;2023-02-28T08:00:50;101399.59;;;19.98;41.87
77281;BME280;66339;47.262;17.144;2023-02-28T08:03:24;101401.00;;;20.00;41.77
77281;BME280;66339;47.262;17.144;2023-02-28T08:05:58;101391.84;;;20.01;41.80
77281;BME280;66339;47.262;17.144;2023-02-28T08:08:28;101398.84;;;20.02;41.72
77281;BME280;66339;47.262;17.144;2023-02-28T08:11:03;101399.16;;;20.06;41.79
77281;BME280;66339;47.262;17.144;2023-02-28T08:13:34;101401.06;;;20.10;41.99
77281;BME280;66339;47.262;17.144;2023-02-28T08:16:12;101400.00;;;20.11;42.07
77281;BME280;66339;47.262;17.144;2023-02-28T08:18:48;101399.75;;;20.13;42.14
77281;BME280;66339;47.262;17.144;2023-02-28T08:21:19;101403.81;;;20.16;42.30
77281;BME280;66339;47.262;17.144;2023-02-28T08:23:51;101397.94;;;20.19;42.25
77281;BME280;66339;47.262;17.144;2023-02-28T08:26:25;101402.22;;;20.20;42.43
77281;BME280;66339;47.262;17.144;2023-02-28T08:29:02;101406.56;;;20.21;42.50
77281;BME280;66339;47.262;17.144;2023-02-28T08:31:29;101408.97;;;20.22;42.37
77281;BME280;66339;47.262;17.144;2023-02-28T08:34:08;101404.41;;;20.23;42.40
77281;BME280;66339;47.262;17.144;2023-02-28T08:36:39;101396.94;;;20.25;42.34
77281;BME280;66339;47.262;17.144;2023-02-28T08:39:14;101397.22;;;20.28;42.15
77281;BME280;66339;47.262;17.144;2023-02-28T08:41:48;101393.19;;;20.31;42.09
77281;BME280;66339;47.262;17.144;2023-02-28T08:44:32;101400.75;;;20.34;42.00
77281;BME280;66339;47.262;17.144;2023-02-28T08:47:02;101395.69;;;20.38;42.01
77281;BME280;66339;47.262;17.144;2023-02-28T08:49:37;101398.94;;;20.40;42.02
77281;BME280;66339;47.262;17.144;2023-02-28T08:52:07;101405.12;;;20.40;41.41
77281;BME280;66339;47.262;17.144;2023-02-28T08:54:39;101393.56;;;20.40;40.26
77281;BME280;66339;47.262;17.144;2023-02-28T08:57:12;101402.94;;;20.37;39.32
77281;BME280;66339;47.262;17.144;2023-02-28T08:59:45;101400.25;;;20.37;39.29
77281;BME280;66339;47.262;17.144;2023-02-28T09:02:35;101390.31;;;20.38;39.38
77281;BME280;66339;47.262;17.144;2023-02-28T09:05:10;101392.72;;;20.39;40.33
77281;BME280;66339;47.262;17.144;2023-02-28T09:07:40;101402.97;;;20.42;40.64
77281;BME280;66339;47.262;17.144;2023-02-28T09:13:44;101403.91;;;20.53;41.56
77281;BME280;66339;47.262;17.144;2023-02-28T09:16:19;101398.34;;;20.59;41.65
77281;BME280;66339;47.262;17.144;2023-02-28T09:18:55;101403.16;;;20.63;41.90
77281;BME280;66339;47.262;17.144;2023-02-28T09:21:26;101397.84;;;20.68;41.79
77281;BME280;66339;47.262;17.144;2023-02-28T09:23:58;101403.25;;;20.73;41.92
77281;BME280;66339;47.262;17.144;2023-02-28T09:26:34;101397.38;;;20.76;42.54
77281;BME280;66339;47.262;17.144;2023-02-28T09:29:40;101399.78;;;20.77;42.30
77281;BME280;66339;47.262;17.144;2023-02-28T09:32:15;101397.97;;;20.83;42.21
77281;BME280;66339;47.262;17.144;2023-02-28T09:34:51;101397.44;;;20.86;42.22
77281;BME280;66339;47.262;17.144;2023-02-28T09:43:44;101409.59;;;20.94;41.96
77281;BME280;66339;47.262;17.144;2023-02-28T09:46:34;101402.87;;;20.96;41.97
77281;BME280;66339;47.262;17.144;2023-02-28T09:49:34;101402.38;;;20.99;42.13
77281;BME280;66339;47.262;17.144;2023-02-28T09:52:18;101402.66;;;21.03;42.34
77281;BME280;66339;47.262;17.144;2023-02-28T09:54:46;101403.47;;;21.03;42.31
77281;BME280;66339;47.262;17.144;2023-02-28T09:57:37;101401.31;;;21.05;42.21
77281;BME280;66339;47.262;17.144;2023-02-28T10:03:35;101408.34;;;21.06;41.95
77281;BME280;66339;47.262;17.144;2023-02-28T10:06:11;101393.81;;;21.07;41.90
77281;BME280;66339;47.262;17.144;2023-02-28T10:08:56;101400.81;;;21.08;41.98
77281;BME280;66339;47.262;17.144;2023-02-28T10:11:28;101405.09;;;21.09;42.03
77281;BME280;66339;47.262;17.144;2023-02-28T10:14:05;101402.19;;;21.11;42.11
77281;BME280;66339;47.262;17.144;2023-02-28T10:16:59;101399.22;;;21.13;42.26
77281;BME280;66339;47.262;17.144;2023-02-28T10:19:41;101401.38;;;21.16;42.50
77281;BME280;66339;47.262;17.144;2023-02-28T10:22:20;101395.50;;;21.19;42.49
77281;BME280;66339;47.262;17.144;2023-02-28T10:24:54;101400.88;;;21.19;42.42
77281;BME280;66339;47.262;17.144;2023-02-28T10:27:23;101396.81;;;21.16;41.41
77281;BME280;66339;47.262;17.144;2023-02-28T10:30:04;101401.38;;;21.16;41.01
77281;BME280;66339;47.262;17.144;2023-02-28T10:32:38;101398.69;;;21.11;41.18
77281;BME280;66339;47.262;17.144;2023-02-28T10:35:19;101390.84;;;21.09;41.26
77281;BME280;66339;47.262;17.144;2023-02-28T10:38:02;101391.66;;;21.09;41.56
77281;BME280;66339;47.262;17.144;2023-02-28T10:40:42;101387.91;;;21.11;40.31
77281;BME280;66339;47.262;17.144;2023-02-28T10:43:27;101385.22;;;21.11;40.86
77281;BME280;66339;47.262;17.144;2023-02-28T10:46:09;101384.97;;;21.12;40.96
77281;BME280;66339;47.262;17.144;2023-02-28T10:48:45;101377.41;;;21.14;40.86
77281;BME280;66339;47.262;17.144;2023-02-28T10:51:16;101375.56;;;21.15;40.88
77281;BME280;66339;47.262;17.144;2023-02-28T10:53:50;101373.41;;;21.17;40.86
77281;BME280;66339;47.262;17.144;2023-02-28T10:56:32;101366.16;;;21.17;40.87
77281;BME280;66339;47.262;17.144;2023-02-28T10:59:29;101365.91;;;21.19;40.89
77281;BME280;66339;47.262;17.144;2023-02-28T11:02:14;101369.69;;;21.23;40.85
77281;BME280;66339;47.262;17.144;2023-02-28T11:04:53;101365.91;;;21.24;40.44
77281;BME280;66339;47.262;17.144;2023-02-28T11:07:26;101362.16;;;21.25;40.19
77281;BME280;66339;47.262;17.144;2023-02-28T11:10:07;101360.00;;;21.27;39.46
77281;BME280;66339;47.262;17.144;2023-02-28T11:13:05;101357.06;;;21.28;38.85
77281;BME280;66339;47.262;17.144;2023-02-28T11:15:36;101353.56;;;21.28;38.65
77281;BME280;66339;47.262;17.144;2023-02-28T11:21:19;101340.09;;;21.28;38.28
77281;BME280;66339;47.262;17.144;2023-02-28T11:24:02;101336.59;;;21.27;38.00
77281;BME280;66339;47.262;17.144;2023-02-28T11:26:54;101340.09;;;21.28;38.21
77281;BME280;66339;47.262;17.144;2023-02-28T11:29:27;101334.72;;;21.28;38.90
77281;BME280;66339;47.262;17.144;2023-02-28T11:32:11;101327.72;;;21.27;39.16
77281;BME280;66339;47.262;17.144;2023-02-28T11:34:40;101332.84;;;21.28;39.26
77281;BME280;66339;47.262;17.144;2023-02-28T11:37:17;101328.25;;;21.29;39.33
77281;BME280;66339;47.262;17.144;2023-02-28T11:39:51;101330.94;;;21.29;39.42
77281;BME280;66339;47.262;17.144;2023-02-28T11:53:46;101313.78;;;21.35;39.40
77281;BME280;66339;47.262;17.144;2023-02-28T12:01:43;101306.25;;;21.37;39.31
77281;BME280;66339;47.262;17.144;2023-02-28T12:04:48;101307.06;;;21.38;39.32
77281;BME280;66339;47.262;17.144;2023-02-28T12:10:26;101299.81;;;21.38;39.13
77281;BME280;66339;47.262;17.144;2023-02-28T12:15:49;101291.75;;;21.38;39.01
77281;BME280;66339;47.262;17.144;2023-02-28T12:18:51;101287.16;;;21.39;39.02
77281;BME280;66339;47.262;17.144;2023-02-28T12:56:19;101230.91;;;21.37;39.26
77281;BME280;66339;47.262;17.144;2023-02-28T12:58:54;101230.91;;;21.37;39.35
77281;BME280;66339;47.262;17.144;2023-02-28T13:08:36;101215.84;;;21.41;39.53
77281;BME280;66339;47.262;17.144;2023-02-28T13:11:05;101221.78;;;21.43;39.73
77281;BME280;66339;47.262;17.144;2023-02-28T13:14:05;101208.31;;;21.43;39.72
77281;BME280;66339;47.262;17.144;2023-02-28T13:35:44;101212.91;;;21.43;39.46
77281;BME280;66339;47.262;17.144;2023-02-28T13:38:22;101207.22;;;21.39;35.28
77281;BME280;66339;47.262;17.144;2023-02-28T13:44:13;101212.28;;;21.25;32.64
77281;BME280;66339;47.262;17.144;2023-02-28T13:52:00;101209.28;;;21.06;30.31
77281;BME280;66339;47.262;17.144;2023-02-28T13:57:50;101200.09;;;20.97;33.20
77281;BME280;66339;47.262;17.144;2023-02-28T14:11:35;101192.03;;;21.02;33.33
77281;BME280;66339;47.262;17.144;2023-02-28T14:14:53;101195.28;;;21.04;33.54
77281;BME280;66339;47.262;17.144;2023-02-28T14:17:18;101185.09;;;21.06;33.69
77281;BME280;66339;47.262;17.144;2023-02-28T14:19:48;101186.69;;;21.07;33.74
77281;BME280;66339;47.262;17.144;2023-02-28T14:28:39;101195.28;;;21.09;34.33
77281;BME280;66339;47.262;17.144;2023-02-28T14:31:34;101186.16;;;21.11;34.69
77281;BME280;66339;47.262;17.144;2023-02-28T14:34:52;101178.63;;;21.13;35.06
77281;BME280;66339;47.262;17.144;2023-02-28T14:41:00;101174.84;;;21.08;35.74
77281;BME280;66339;47.262;17.144;2023-02-28T14:56:48;101176.41;;;20.89;37.76
77281;BME280;66339;47.262;17.144;2023-02-28T14:59:37;101180.69;;;20.85;37.89
77281;BME280;66339;47.262;17.144;2023-02-28T15:02:30;101181.22;;;20.82;38.02
77281;BME280;66339;47.262;17.144;2023-02-28T15:05:20;101172.09;;;20.83;37.50
77281;BME280;66339;47.262;17.144;2023-02-28T15:08:14;101170.75;;;20.80;37.78
77281;BME280;66339;47.262;17.144;2023-02-28T15:10:49;101177.47;;;20.83;38.04
77281;BME280;66339;47.262;17.144;2023-02-28T15:13:19;101180.16;;;20.83;37.87
77281;BME280;66339;47.262;17.144;2023-02-28T15:16:16;101185.28;;;20.84;38.00
77281;BME280;66339;47.262;17.144;2023-02-28T15:19:28;101173.72;;;20.84;37.92
77281;BME280;66339;47.262;17.144;2023-02-28T15:21:48;101177.47;;;20.83;37.84
77281;BME280;66339;47.262;17.144;2023-02-28T15:24:42;101183.66;;;20.83;37.86
77281;BME280;66339;47.262;17.144;2023-02-28T15:27:32;101177.47;;;20.83;38.13
77281;BME280;66339;47.262;17.144;2023-02-28T15:30:31;101172.91;;;20.83;38.33
77281;BME280;66339;47.262;17.144;2023-02-28T15:36:34;101173.97;;;20.82;38.30
77281;BME280;66339;47.262;17.144;2023-02-28T15:39:33;101181.22;;;20.82;38.18
77281;BME280;66339;47.262;17.144;2023-02-28T15:42:27;101175.31;;;20.80;38.17
77281;BME280;66339;47.262;17.144;2023-02-28T15:48:22;101182.03;;;20.82;38.25
77281;BME280;66339;47.262;17.144;2023-02-28T15:51:05;101177.97;;;20.75;38.16
77281;BME280;66339;47.262;17.144;2023-02-28T15:57:06;101186.56;;;20.72;38.11
77281;BME280;66339;47.262;17.144;2023-02-28T15:59:42;101179.56;;;20.71;38.02
77281;BME280;66339;47.262;17.144;2023-02-28T16:02:21;101177.94;;;20.70;38.44
77281;BME280;66339;47.262;17.144;2023-02-28T16:04:59;101168.81;;;20.71;38.30
77281;BME280;66339;47.262;17.144;2023-02-28T16:07:35;101182.00;;;20.72;38.03
77281;BME280;66339;47.262;17.144;2023-02-28T16:10:12;101175.81;;;20.72;38.26
77281;BME280;66339;47.262;17.144;2023-02-28T16:13:01;101179.56;;;20.71;38.62
77281;BME280;66339;47.262;17.144;2023-02-28T16:15:37;101174.19;;;20.71;39.09
77281;BME280;66339;47.262;17.144;2023-02-28T16:18:30;101181.19;;;20.72;38.98
77281;BME280;66339;47.262;17.144;2023-02-28T16:20:58;101187.38;;;20.67;39.26
77281;BME280;66339;47.262;17.144;2023-02-28T16:23:28;101180.09;;;20.68;39.62
77281;BME280;66339;47.262;17.144;2023-02-28T16:26:04;101187.09;;;20.69;39.66
77281;BME280;66339;47.262;17.144;2023-02-28T16:28:38;101190.06;;;20.67;40.05
77281;BME280;66339;47.262;17.144;2023-02-28T16:31:09;101202.16;;;20.70;39.86
77281;BME280;66339;47.262;17.144;2023-02-28T16:33:43;101196.78;;;20.70;39.86
77281;BME280;66339;47.262;17.144;2023-02-28T16:36:20;101196.53;;;20.71;39.92
77281;BME280;66339;47.262;17.144;2023-02-28T16:38:51;101194.88;;;20.70;39.84
77281;BME280;66339;47.262;17.144;2023-02-28T16:41:26;101201.06;;;20.71;39.79
77281;BME280;66339;47.262;17.144;2023-02-28T16:44:00;101191.94;;;20.72;39.75